createdAt,value
2023-03-06T00:00:39.282Z,8.57
2023-03-06T00:03:06.788Z,9.48
2023-03-06T00:05:34.241Z,6.15
2023-03-06T00:08:01.531Z,10.55
2023-03-06T00:10:29.966Z,6.80
2023-03-06T00:12:58.691Z,6.82
2023-03-06T00:15:26.622Z,7.68
2023-03-06T00:17:54.333Z,8.50
2023-03-06T00:20:22.052Z,7.30
2023-03-06T00:22:49.738Z,6.03
2023-03-06T00:25:19.315Z,4.43
2023-03-06T00:27:46.783Z,5.35
2023-03-06T00:30:16.011Z,10.00
2023-03-06T00:32:43.956Z,6.95
2023-03-06T00:35:11.741Z,4.80
2023-03-06T00:37:39.373Z,9.40
2023-03-06T00:40:07.441Z,4.43
2023-03-06T00:42:34.776Z,13.73
2023-03-06T00:45:02.124Z,6.90
2023-03-06T00:47:29.468Z,5.07
2023-03-06T00:49:56.802Z,6.25
2023-03-06T00:52:24.185Z,8.10
2023-03-06T00:54:51.603Z,12.75
2023-03-06T00:57:18.932Z,7.70
2023-03-06T00:59:46.309Z,5.28
2023-03-06T01:02:13.702Z,6.45
2023-03-06T01:04:41.053Z,7.25
2023-03-06T01:07:08.473Z,5.32
2023-03-06T01:09:35.827Z,7.65
2023-03-06T01:12:03.173Z,7.00
2023-03-06T01:14:31.597Z,9.48
2023-03-06T01:16:59.176Z,7.50
2023-03-06T01:19:26.533Z,8.18
2023-03-06T01:21:53.856Z,11.00
2023-03-06T01:24:21.197Z,6.75
2023-03-06T01:26:48.471Z,4.53
2023-03-06T01:29:15.824Z,5.70
2023-03-06T01:31:43.183Z,9.55
2023-03-06T01:34:10.545Z,5.13
2023-03-06T01:36:37.830Z,6.85
2023-03-06T01:39:05.191Z,5.85
2023-03-06T01:41:33.773Z,7.20
2023-03-06T01:44:01.206Z,4.57
2023-03-06T01:46:48.393Z,7.50
2023-03-06T01:49:35.579Z,3.88
2023-03-06T01:52:04.584Z,7.13
2023-03-06T01:54:34.996Z,5.28
2023-03-06T01:57:06.450Z,6.03
2023-03-06T01:59:36.138Z,5.03
2023-03-06T02:02:04.287Z,6.22
2023-03-06T02:04:32.120Z,6.40
2023-03-06T02:07:01.018Z,8.52
2023-03-06T02:09:31.049Z,5.22
2023-03-06T02:11:58.399Z,7.38
2023-03-06T02:14:25.893Z,5.93
2023-03-06T02:16:53.444Z,17.20
2023-03-06T02:19:40.651Z,3.25
2023-03-06T02:22:08.178Z,10.25
2023-03-06T02:24:38.364Z,5.15
2023-03-06T02:27:06.377Z,5.60
2023-03-06T02:29:33.820Z,5.20
2023-03-06T02:32:01.225Z,4.38
2023-03-06T02:34:48.417Z,6.30
2023-03-06T02:37:15.699Z,5.22
2023-03-06T02:39:45.655Z,3.40
2023-03-06T02:42:18.341Z,4.20
2023-03-06T02:44:45.777Z,2.90
2023-03-06T02:47:13.108Z,3.88
2023-03-06T02:49:40.369Z,7.22
2023-03-06T02:52:08.387Z,3.67
2023-03-06T02:54:35.704Z,4.10
2023-03-06T02:57:03.041Z,7.20
2023-03-06T02:59:30.360Z,5.43
2023-03-06T03:01:57.718Z,5.57
2023-03-06T03:04:25.290Z,6.78
2023-03-06T03:06:52.632Z,11.48
2023-03-06T03:09:20.021Z,6.93
2023-03-06T03:11:47.380Z,9.20
2023-03-06T03:14:16.393Z,5.22
2023-03-06T03:16:43.689Z,7.53
2023-03-06T03:19:10.992Z,4.45
2023-03-06T03:21:39.035Z,7.13
2023-03-06T03:24:06.617Z,3.58
2023-03-06T03:26:33.935Z,5.45
2023-03-06T03:29:01.238Z,6.65
2023-03-06T03:31:28.676Z,5.68
2023-03-06T03:33:56.240Z,6.35
2023-03-06T03:36:24.733Z,5.60
2023-03-06T03:38:52.042Z,4.45
2023-03-06T03:41:19.405Z,5.13
2023-03-06T03:43:46.734Z,5.63
2023-03-06T03:46:14.093Z,5.80
2023-03-06T03:48:41.508Z,7.47
2023-03-06T03:51:11.074Z,5.25
2023-03-06T03:53:38.762Z,4.80
2023-03-06T03:56:06.689Z,5.70
2023-03-06T03:58:34.096Z,3.67
2023-03-06T04:01:01.626Z,4.57
2023-03-06T04:03:28.955Z,3.70
2023-03-06T04:05:58.097Z,6.55
2023-03-06T04:08:26.521Z,4.13
2023-03-06T04:10:54.466Z,5.70
2023-03-06T04:13:22.337Z,5.63
2023-03-06T04:15:50.552Z,4.75
2023-03-06T04:18:18.737Z,4.25
2023-03-06T04:20:46.679Z,2.45
2023-03-06T04:23:14.298Z,5.13
2023-03-06T04:25:41.984Z,5.15
2023-03-06T04:28:09.781Z,4.32
2023-03-06T04:30:37.128Z,6.03
2023-03-06T04:33:04.894Z,10.25
2023-03-06T04:35:32.365Z,4.82
2023-03-06T04:37:59.751Z,5.07
2023-03-06T04:40:28.996Z,5.85
2023-03-06T04:42:57.693Z,4.45
2023-03-06T04:45:25.320Z,6.18
2023-03-06T04:47:52.789Z,15.70
2023-03-06T04:50:20.493Z,7.30
2023-03-06T04:52:47.845Z,3.75
2023-03-06T04:55:16.200Z,7.25
2023-03-06T04:57:45.458Z,7.10
2023-03-06T05:00:15.101Z,5.05
2023-03-06T05:02:43.608Z,7.63
2023-03-06T05:05:11.578Z,4.22
2023-03-06T05:07:39.001Z,11.68
2023-03-06T05:10:07.176Z,6.40
2023-03-06T05:12:37.056Z,5.68
2023-03-06T05:15:05.258Z,5.50
2023-03-06T05:17:32.686Z,4.07
2023-03-06T05:20:00.149Z,9.45
2023-03-06T05:22:27.467Z,11.82
2023-03-06T05:24:54.751Z,13.60
2023-03-06T05:27:22.176Z,6.93
2023-03-06T05:29:49.534Z,8.10
2023-03-06T05:32:17.328Z,5.05
2023-03-06T05:34:44.737Z,9.90
2023-03-06T05:37:12.134Z,4.95
2023-03-06T05:39:39.548Z,5.50
2023-03-06T05:42:06.995Z,11.73
2023-03-06T05:44:35.105Z,11.93
2023-03-06T05:47:02.802Z,9.63
2023-03-06T05:49:34.364Z,14.10
2023-03-06T05:52:04.118Z,17.65
2023-03-06T05:54:33.162Z,13.57
2023-03-06T05:57:00.629Z,13.05
2023-03-06T05:59:29.177Z,11.35
2023-03-06T06:01:56.924Z,13.20
2023-03-06T06:04:24.919Z,11.30
2023-03-06T06:06:52.903Z,8.85
2023-03-06T06:09:21.007Z,6.65
2023-03-06T06:11:48.382Z,10.90
2023-03-06T06:14:15.701Z,8.07
2023-03-06T06:16:43.117Z,9.57
2023-03-06T06:19:10.429Z,10.20
2023-03-06T06:21:37.801Z,10.48
2023-03-06T06:24:05.295Z,8.75
2023-03-06T06:26:32.621Z,10.23
2023-03-06T06:29:00.348Z,12.05
2023-03-06T06:31:27.848Z,12.43
2023-03-06T06:33:55.176Z,11.63
2023-03-06T06:36:22.657Z,10.27
2023-03-06T06:38:50.449Z,9.52
2023-03-06T06:44:08.465Z,9.67
2023-03-06T06:49:23.939Z,9.25
2023-03-06T06:51:51.223Z,8.63
2023-03-06T06:54:19.930Z,11.50
2023-03-06T06:56:47.243Z,10.98
2023-03-06T06:59:17.147Z,11.80
2023-03-06T07:01:44.965Z,15.40
2023-03-06T07:04:13.776Z,8.73
2023-03-06T07:06:41.565Z,9.65
2023-03-06T07:09:08.973Z,10.20
2023-03-06T07:11:37.967Z,10.73
2023-03-06T07:14:05.315Z,13.80
2023-03-06T07:16:32.643Z,14.27
2023-03-06T07:18:59.964Z,28.08
2023-03-06T07:21:27.424Z,12.93
2023-03-06T07:23:57.439Z,14.25
2023-03-06T07:26:25.650Z,11.70
2023-03-06T07:28:53.789Z,12.23
2023-03-06T07:31:22.483Z,10.85
2023-03-06T07:33:50.504Z,9.95
2023-03-06T07:36:17.987Z,10.43
2023-03-06T07:38:45.401Z,18.75
2023-03-06T07:41:13.846Z,9.98
2023-03-06T07:43:41.728Z,11.95
2023-03-06T07:46:09.619Z,15.10
2023-03-06T07:48:38.113Z,16.88
2023-03-06T07:51:06.877Z,16.42
2023-03-06T07:53:34.592Z,15.07
2023-03-06T07:56:04.826Z,16.50
2023-03-06T07:58:38.595Z,7.88
2023-03-06T08:01:06.924Z,9.27
2023-03-06T08:03:34.504Z,10.27
2023-03-06T08:06:10.554Z,10.05
2023-03-06T08:08:39.719Z,7.32
2023-03-06T08:11:09.078Z,9.82
2023-03-06T08:13:36.742Z,9.00
2023-03-06T08:16:04.705Z,10.73
2023-03-06T08:18:32.125Z,8.65
2023-03-06T08:21:07.945Z,7.18
2023-03-06T08:23:35.759Z,8.77
2023-03-06T08:26:05.140Z,5.93
2023-03-06T08:28:32.417Z,6.00
2023-03-06T08:30:59.871Z,7.70
2023-03-06T08:33:28.193Z,6.82
2023-03-06T08:35:55.544Z,10.95
2023-03-06T08:38:23.396Z,9.23
2023-03-06T08:40:50.756Z,6.43
2023-03-06T08:43:18.065Z,5.93
2023-03-06T08:45:45.428Z,10.88
2023-03-06T08:48:12.850Z,12.98
2023-03-06T08:50:41.678Z,5.45
2023-03-06T08:53:09.056Z,6.43
2023-03-06T08:55:40.396Z,8.77
2023-03-06T08:58:08.919Z,5.50
2023-03-06T09:00:39.324Z,5.53
2023-03-06T09:03:06.941Z,5.30
2023-03-06T09:05:34.296Z,6.25
2023-03-06T09:08:01.592Z,4.43
2023-03-06T09:10:29.184Z,8.63
2023-03-06T09:12:56.557Z,12.90
2023-03-06T09:15:24.283Z,8.07
2023-03-06T09:17:52.323Z,6.00
2023-03-06T09:20:19.797Z,8.27
2023-03-06T09:22:47.419Z,34.23
2023-03-06T09:25:20.163Z,18.37
2023-03-06T09:27:53.428Z,19.67
2023-03-06T09:30:29.531Z,23.93
2023-03-06T09:32:57.387Z,14.27
2023-03-06T09:35:24.797Z,8.27
2023-03-06T09:37:52.145Z,9.67
2023-03-06T09:40:24.216Z,10.10
2023-03-06T09:42:51.813Z,7.70
2023-03-06T09:45:20.550Z,8.87
2023-03-06T09:47:51.601Z,8.30
2023-03-06T09:50:38.834Z,5.57
2023-03-06T09:53:26.115Z,6.70
2023-03-06T09:55:58.318Z,7.07
2023-03-06T09:58:27.860Z,6.80
2023-03-06T10:01:16.407Z,4.73
2023-03-06T10:04:03.685Z,4.47
2023-03-06T10:06:34.456Z,6.07
2023-03-06T10:09:04.354Z,7.87
2023-03-06T10:11:51.694Z,3.67
2023-03-06T10:14:23.401Z,4.57
2023-03-06T10:16:50.787Z,7.77
2023-03-06T10:19:19.912Z,3.77
2023-03-06T10:22:07.228Z,6.50
2023-03-06T10:24:43.605Z,8.97
2023-03-06T10:27:14.002Z,4.53
2023-03-06T10:30:01.286Z,7.67
2023-03-06T10:32:49.917Z,4.00
2023-03-06T10:35:20.591Z,6.13
2023-03-06T10:37:48.950Z,6.43
2023-03-06T10:40:36.485Z,5.03
2023-03-06T10:43:11.430Z,4.40
2023-03-06T10:45:49.613Z,4.30
2023-03-06T10:48:20.057Z,5.03
2023-03-06T10:50:47.440Z,9.53
2023-03-06T10:53:24.393Z,7.53
2023-03-06T10:55:54.393Z,7.00
2023-03-06T10:58:41.629Z,6.13
2023-03-06T11:01:24.732Z,6.97
2023-03-06T11:03:54.115Z,3.47
2023-03-06T11:06:32.256Z,4.87
2023-03-06T11:09:15.112Z,5.10
2023-03-06T11:11:42.449Z,7.40
2023-03-06T11:14:18.432Z,5.53
2023-03-06T11:16:53.030Z,7.27
2023-03-06T11:19:27.424Z,5.55
2023-03-06T11:22:14.741Z,5.55
2023-03-06T11:24:45.215Z,6.23
2023-03-06T11:27:35.039Z,4.20
2023-03-06T11:30:04.323Z,6.43
2023-03-06T11:32:37.861Z,5.57
2023-03-06T11:35:07.146Z,6.83
2023-03-06T11:37:46.706Z,7.97
2023-03-06T11:40:18.417Z,7.70
2023-03-06T11:42:52.697Z,5.37
2023-03-06T11:45:23.255Z,6.20
2023-03-06T11:48:10.520Z,7.33
2023-03-06T11:50:40.526Z,12.50
2023-03-06T11:53:11.417Z,6.10
2023-03-06T11:55:58.603Z,7.60
2023-03-06T11:58:45.906Z,5.63
2023-03-06T12:01:33.240Z,8.70
2023-03-06T12:04:20.426Z,5.67
2023-03-06T12:06:53.403Z,4.73
2023-03-06T12:09:40.598Z,13.10
2023-03-06T12:12:28.025Z,5.73
2023-03-06T12:15:15.396Z,26.63
2023-03-06T12:17:57.506Z,8.97
2023-03-06T12:20:44.664Z,5.63
2023-03-06T12:23:31.908Z,4.13
2023-03-06T12:26:12.427Z,5.87
2023-03-06T12:28:51.480Z,4.80
2023-03-06T12:31:37.279Z,8.53
2023-03-06T12:36:36.395Z,5.77
2023-03-06T12:39:24.158Z,41.80
2023-03-06T12:42:17.817Z,7.73
2023-03-06T12:45:09.817Z,10.30
2023-03-06T12:47:42.213Z,184.90
2023-03-06T12:50:29.597Z,16.00
2023-03-06T12:52:58.780Z,11.33
2023-03-06T12:55:26.435Z,7.95
2023-03-06T12:57:54.055Z,13.90
2023-03-06T13:00:41.280Z,9.52
2023-03-06T13:03:28.664Z,6.93
2023-03-06T13:06:01.894Z,10.20
2023-03-06T13:08:51.105Z,5.60
2023-03-06T13:11:38.341Z,6.88
2023-03-06T13:14:25.768Z,8.95
2023-03-06T13:16:53.413Z,11.85
2023-03-06T13:19:22.688Z,7.18
2023-03-06T13:22:10.141Z,7.03
2023-03-06T13:24:37.832Z,6.55
2023-03-06T13:27:07.143Z,4.53
2023-03-06T13:29:54.433Z,6.40
2023-03-06T13:32:29.918Z,5.97
2023-03-06T13:34:57.330Z,4.07
2023-03-06T13:37:41.315Z,8.50
2023-03-06T13:40:28.504Z,8.87
2023-03-06T13:43:15.693Z,4.70
2023-03-06T13:45:43.866Z,8.43
2023-03-06T13:48:45.997Z,93.20
2023-03-06T13:51:24.472Z,117.23
2023-03-06T13:54:11.800Z,10.50
2023-03-06T13:56:59.088Z,5.07
2023-03-06T13:59:34.821Z,5.00
2023-03-06T14:02:22.083Z,7.97
2023-03-06T14:05:09.274Z,7.95
2023-03-06T14:07:41.591Z,6.57
2023-03-06T14:10:28.903Z,5.90
2023-03-06T14:13:02.096Z,6.80
2023-03-06T14:15:37.649Z,6.73
2023-03-06T14:18:07.937Z,6.88
2023-03-06T14:20:42.548Z,7.43
2023-03-06T14:23:29.753Z,3.63
2023-03-06T14:26:01.712Z,4.65
2023-03-06T14:28:30.308Z,5.00
2023-03-06T14:30:58.367Z,7.28
2023-03-06T14:33:45.611Z,5.75
2023-03-06T14:36:14.927Z,6.35
2023-03-06T14:38:45.784Z,8.35
2023-03-06T14:41:23.239Z,6.45
2023-03-06T14:43:50.589Z,6.65
2023-03-06T14:46:22.376Z,11.95
2023-03-06T14:48:50.288Z,5.65
2023-03-06T14:51:21.227Z,9.13
2023-03-06T14:53:49.901Z,7.22
2023-03-06T14:56:18.972Z,6.38
2023-03-06T14:59:06.216Z,8.73
2023-03-06T15:01:53.503Z,5.95
2023-03-06T15:04:25.973Z,11.15
2023-03-06T15:06:53.817Z,6.07
2023-03-06T15:09:41.103Z,9.73
2023-03-06T15:12:31.415Z,17.92
2023-03-06T15:15:00.706Z,10.90
2023-03-06T15:17:47.992Z,8.25
2023-03-06T15:20:35.272Z,5.60
2023-03-06T15:23:02.770Z,8.82
2023-03-06T15:25:31.091Z,21.02
2023-03-06T15:27:59.877Z,14.43
2023-03-06T15:30:47.142Z,29.33
2023-03-06T15:33:32.372Z,18.25
2023-03-06T15:36:01.970Z,16.40
2023-03-06T15:38:49.533Z,13.95
2023-03-06T15:41:22.253Z,12.13
2023-03-06T15:43:49.829Z,11.48
2023-03-06T15:46:17.280Z,10.50
2023-03-06T15:49:04.445Z,15.20
2023-03-06T15:51:32.522Z,9.68
2023-03-06T15:54:11.260Z,11.10
2023-03-06T15:56:40.589Z,10.57
2023-03-06T15:59:09.606Z,12.30
2023-03-06T16:01:37.496Z,15.77
2023-03-06T16:04:05.096Z,16.10
2023-03-06T16:06:32.517Z,9.15
2023-03-06T16:08:59.914Z,9.60
2023-03-06T16:11:35.376Z,7.70
2023-03-06T16:14:16.300Z,8.60
2023-03-06T16:16:43.798Z,6.53
2023-03-06T16:19:25.392Z,13.75
2023-03-06T16:21:53.685Z,13.73
2023-03-06T16:24:21.083Z,15.68
2023-03-06T16:27:01.747Z,14.63
2023-03-06T16:29:29.785Z,11.32
2023-03-06T16:31:58.028Z,13.15
2023-03-06T16:34:25.635Z,7.25
2023-03-06T16:36:53.264Z,4.57
2023-03-06T16:39:22.124Z,6.28
2023-03-06T16:41:49.780Z,6.50
2023-03-06T16:44:17.439Z,29.08
2023-03-06T16:46:46.037Z,46.53
2023-03-06T16:49:17.041Z,11.25
2023-03-06T16:51:44.439Z,7.53
2023-03-06T16:54:12.150Z,7.30
2023-03-06T16:56:39.482Z,10.73
2023-03-06T16:59:06.830Z,15.18
2023-03-06T17:01:34.419Z,17.98
2023-03-06T17:04:02.020Z,10.88
2023-03-06T17:06:29.345Z,15.55
2023-03-06T17:08:58.226Z,14.95
2023-03-06T17:11:25.584Z,19.98
2023-03-06T17:13:54.839Z,22.02
2023-03-06T17:16:22.355Z,20.10
2023-03-06T17:18:49.822Z,22.90
2023-03-06T17:21:17.414Z,24.45
2023-03-06T17:23:44.888Z,19.23
2023-03-06T17:26:32.068Z,16.02
2023-03-06T17:28:59.553Z,15.02
2023-03-06T17:31:27.859Z,14.57
2023-03-06T17:33:59.262Z,16.52
2023-03-06T17:36:27.415Z,16.58
2023-03-06T17:38:56.864Z,11.68
2023-03-06T17:41:24.789Z,16.52
2023-03-06T17:43:52.678Z,13.48
2023-03-06T17:46:20.199Z,13.63
2023-03-06T17:48:47.872Z,10.63
2023-03-06T17:51:15.237Z,10.20
2023-03-06T17:53:42.588Z,12.57
2023-03-06T17:56:12.104Z,12.90
2023-03-06T17:58:39.434Z,19.50
2023-03-06T18:01:11.028Z,16.70
2023-03-06T18:03:38.774Z,17.70
2023-03-06T18:06:09.569Z,19.02
2023-03-06T18:08:37.481Z,18.88
2023-03-06T18:11:06.591Z,23.75
2023-03-06T18:13:40.040Z,21.98
2023-03-06T18:16:08.980Z,16.55
2023-03-06T18:18:36.861Z,15.15
2023-03-06T18:21:05.499Z,14.88
2023-03-06T18:23:32.827Z,16.85
2023-03-06T18:26:14.783Z,15.85
2023-03-06T18:28:44.640Z,14.68
2023-03-06T18:31:34.435Z,16.13
2023-03-06T18:34:05.880Z,19.35
2023-03-06T18:36:34.384Z,22.92
2023-03-06T18:39:03.804Z,24.60
2023-03-06T18:41:32.235Z,21.15
2023-03-06T18:44:00.836Z,24.70
2023-03-06T18:46:37.459Z,29.00
2023-03-06T18:49:04.985Z,29.80
2023-03-06T18:51:32.326Z,25.92
2023-03-06T18:54:03.737Z,24.13
2023-03-06T18:56:31.196Z,20.98
2023-03-06T18:59:02.651Z,24.70
2023-03-06T19:01:31.452Z,19.83
2023-03-06T19:04:02.726Z,21.15
2023-03-06T19:06:30.229Z,20.25
2023-03-06T19:08:58.894Z,21.23
2023-03-06T19:11:27.205Z,19.92
2023-03-06T19:13:54.963Z,21.20
2023-03-06T19:16:26.128Z,22.48
2023-03-06T19:18:57.500Z,23.35
2023-03-06T19:21:27.314Z,24.88
2023-03-06T19:23:56.368Z,23.63
2023-03-06T19:26:23.987Z,39.90
2023-03-06T19:28:52.711Z,55.35
2023-03-06T19:31:25.074Z,37.25
2023-03-06T19:33:53.821Z,42.20
2023-03-06T19:36:26.681Z,42.47
2023-03-06T19:38:55.215Z,41.78
2023-03-06T19:41:22.591Z,38.55
2023-03-06T19:44:05.256Z,38.38
2023-03-06T19:46:34.438Z,31.25
2023-03-06T19:49:02.817Z,38.42
2023-03-06T19:51:30.492Z,32.42
2023-03-06T19:53:58.083Z,31.65
2023-03-06T19:56:27.334Z,21.17
2023-03-06T19:58:54.723Z,21.05
2023-03-06T20:01:23.562Z,19.98
2023-03-06T20:03:51.312Z,22.95
2023-03-06T20:06:19.660Z,19.23
2023-03-06T20:08:47.733Z,20.40
2023-03-06T20:11:17.095Z,22.75
2023-03-06T20:13:47.502Z,24.05
2023-03-06T20:16:15.600Z,20.50
2023-03-06T20:18:42.942Z,20.88
2023-03-06T20:21:10.304Z,21.25
2023-03-06T20:23:38.128Z,25.77
2023-03-06T20:26:07.199Z,31.02
2023-03-06T20:28:35.133Z,31.27
2023-03-06T20:31:19.761Z,23.55
2023-03-06T20:33:47.825Z,30.33
2023-03-06T20:36:18.739Z,28.00
2023-03-06T20:38:46.192Z,25.80
2023-03-06T20:41:17.776Z,26.05
2023-03-06T20:43:45.325Z,31.85
2023-03-06T20:46:13.677Z,31.35
2023-03-06T20:48:41.792Z,28.90
2023-03-06T20:51:13.135Z,35.72
2023-03-06T20:53:40.546Z,36.03
2023-03-06T20:56:11.624Z,32.25
2023-03-06T20:58:38.980Z,35.70
2023-03-06T21:01:06.358Z,38.72
2023-03-06T21:03:33.796Z,34.05
2023-03-06T21:06:01.178Z,40.13
2023-03-06T21:08:28.541Z,38.13
2023-03-06T21:10:55.822Z,40.67
2023-03-06T21:13:23.183Z,37.03
2023-03-06T21:15:50.562Z,36.78
2023-03-06T21:18:17.969Z,35.67
2023-03-06T21:20:45.612Z,39.97
2023-03-06T21:23:12.869Z,40.03
2023-03-06T21:25:47.873Z,40.72
2023-03-06T21:28:15.209Z,45.97
2023-03-06T21:30:43.001Z,45.55
2023-03-06T21:33:10.865Z,42.53
2023-03-06T21:35:39.852Z,38.78
2023-03-06T21:38:07.660Z,44.40
2023-03-06T21:40:35.134Z,50.38
2023-03-06T21:43:02.510Z,44.88
2023-03-06T21:45:30.529Z,44.55
2023-03-06T21:47:58.256Z,44.38
2023-03-06T21:50:25.951Z,50.20
2023-03-06T21:52:53.874Z,46.88
2023-03-06T21:55:22.342Z,51.40
2023-03-06T21:57:51.657Z,50.83
2023-03-06T22:00:19.681Z,42.17
2023-03-06T22:02:47.922Z,45.72
2023-03-06T22:05:15.697Z,46.92
2023-03-06T22:07:43.208Z,48.17
2023-03-06T22:10:14.196Z,46.83
2023-03-06T22:12:41.674Z,51.92
2023-03-06T22:15:09.664Z,51.15
2023-03-06T22:17:37.018Z,53.65
2023-03-06T22:20:04.538Z,55.33
2023-03-06T22:22:31.865Z,59.50
2023-03-06T22:24:59.283Z,54.83
2023-03-06T22:27:26.716Z,64.47
2023-03-06T22:29:54.044Z,69.10
2023-03-06T22:32:21.494Z,68.80
2023-03-06T22:34:49.837Z,54.78
2023-03-06T22:37:17.202Z,60.30
2023-03-06T22:39:44.564Z,63.30
2023-03-06T22:42:11.891Z,56.20
2023-03-06T22:44:39.538Z,59.00
2023-03-06T22:47:06.983Z,53.85
2023-03-06T22:49:34.330Z,56.65
2023-03-06T22:52:01.709Z,52.72
2023-03-06T22:54:29.065Z,55.08
2023-03-06T22:56:56.421Z,60.78
2023-03-06T22:59:23.748Z,62.00
2023-03-06T23:01:51.081Z,54.08
2023-03-06T23:04:18.345Z,60.70
2023-03-06T23:06:47.016Z,58.75
2023-03-06T23:09:34.239Z,55.45
2023-03-06T23:12:01.548Z,60.53
2023-03-06T23:14:28.862Z,58.08
2023-03-06T23:16:56.319Z,59.20
2023-03-06T23:19:23.667Z,56.75
2023-03-06T23:21:50.981Z,56.67
2023-03-06T23:24:18.297Z,49.20
2023-03-06T23:26:45.667Z,44.03
2023-03-06T23:29:12.969Z,46.78
2023-03-06T23:31:40.341Z,43.10
2023-03-06T23:34:10.856Z,43.55
2023-03-06T23:36:38.207Z,47.38
2023-03-06T23:39:05.571Z,43.72
2023-03-06T23:41:32.900Z,47.28
2023-03-06T23:44:00.300Z,36.53
2023-03-06T23:46:27.713Z,38.35
2023-03-06T23:48:55.054Z,43.00
2023-03-06T23:51:23.035Z,35.92
2023-03-06T23:53:54.563Z,37.75
2023-03-06T23:56:21.949Z,38.53
2023-03-06T23:58:49.207Z,39.50
